createdAt,value
2019-02-24T00:01:10.926Z,38.13
2019-02-24T00:03:59.355Z,38.69
2019-02-24T00:06:47.723Z,38.29
2019-02-24T00:09:36.300Z,38.63
2019-02-24T00:12:25.169Z,38.92
2019-02-24T00:15:13.843Z,38.64
2019-02-24T00:18:02.869Z,38.70
2019-02-24T00:20:51.702Z,38.68
2019-02-24T00:23:40.583Z,38.92
2019-02-24T00:26:29.115Z,38.85
2019-02-24T00:29:17.942Z,38.83
2019-02-24T00:32:09.609Z,38.72
2019-02-24T00:34:57.849Z,38.90
2019-02-24T00:37:46.713Z,39.13
2019-02-24T00:40:35.466Z,39.23
2019-02-24T00:43:23.861Z,39.22
2019-02-24T00:46:12.679Z,39.79
2019-02-24T00:49:00.950Z,39.44
2019-02-24T00:51:49.889Z,38.91
2019-02-24T00:54:37.995Z,38.95
2019-02-24T00:57:26.860Z,39.34
2019-02-24T01:00:16.022Z,39.64
2019-02-24T01:03:05.027Z,39.52
2019-02-24T01:05:53.645Z,39.79
2019-02-24T01:08:42.328Z,39.28
2019-02-24T01:11:31.080Z,38.92
2019-02-24T01:14:19.801Z,39.00
2019-02-24T01:17:10.316Z,38.86
2019-02-24T01:19:59.258Z,39.15
2019-02-24T01:22:47.696Z,39.66
2019-02-24T01:25:36.263Z,39.75
2019-02-24T01:28:25.658Z,39.70
2019-02-24T01:31:14.234Z,39.20
2019-02-24T01:34:02.768Z,39.08
2019-02-24T01:36:51.557Z,39.54
2019-02-24T01:39:40.669Z,39.05
2019-02-24T01:42:29.506Z,39.64
2019-02-24T01:45:17.921Z,39.06
2019-02-24T01:48:06.474Z,39.11
2019-02-24T01:50:54.824Z,39.39
2019-02-24T01:53:43.459Z,39.93
2019-02-24T01:56:32.008Z,39.58
2019-02-24T01:59:20.929Z,39.95
2019-02-24T02:02:09.844Z,39.28
2019-02-24T02:04:58.603Z,39.43
2019-02-24T02:07:47.186Z,39.80
2019-02-24T02:10:35.411Z,39.89
2019-02-24T02:13:24.168Z,39.86
2019-02-24T02:16:12.841Z,39.94
2019-02-24T02:19:01.085Z,40.36
2019-02-24T02:21:49.886Z,40.47
2019-02-24T02:24:38.270Z,40.37
2019-02-24T02:27:27.355Z,40.53
2019-02-24T02:30:16.157Z,40.44
2019-02-24T02:33:04.949Z,39.88
2019-02-24T02:35:53.635Z,39.88
2019-02-24T02:38:42.472Z,39.74
2019-02-24T02:41:31.426Z,39.84
2019-02-24T02:44:20.212Z,40.22
2019-02-24T02:47:09.124Z,39.97
2019-02-24T02:49:57.723Z,40.10
2019-02-24T02:52:45.872Z,40.16
2019-02-24T02:55:34.569Z,40.57
2019-02-24T02:58:22.631Z,40.83
2019-02-24T03:01:10.789Z,40.45
2019-02-24T03:03:59.891Z,40.43
2019-02-24T03:07:06.801Z,40.87
2019-02-24T03:09:55.744Z,40.45
2019-02-24T03:12:44.938Z,41.13
2019-02-24T03:15:34.038Z,41.11
2019-02-24T03:18:22.586Z,41.34
2019-02-24T03:21:10.711Z,41.05
2019-02-24T03:23:59.472Z,41.06
2019-02-24T03:26:48.549Z,41.64
2019-02-24T03:29:37.406Z,41.95
2019-02-24T03:32:26.257Z,41.69
2019-02-24T03:35:15.033Z,41.89
2019-02-24T03:38:03.745Z,41.73
2019-02-24T03:40:52.169Z,42.01
2019-02-24T03:43:40.197Z,41.53
2019-02-24T03:46:28.323Z,41.84
2019-02-24T03:49:16.944Z,41.59
2019-02-24T03:52:05.800Z,41.54
2019-02-24T03:54:54.268Z,42.17
2019-02-24T03:57:43.030Z,41.61
2019-02-24T04:00:32.069Z,41.76
2019-02-24T04:03:20.870Z,41.73
2019-02-24T04:06:10.022Z,41.84
2019-02-24T04:08:58.806Z,41.63
2019-02-24T04:11:47.646Z,41.89
2019-02-24T04:14:36.212Z,41.68
2019-02-24T04:17:25.201Z,41.12
2019-02-24T04:20:14.080Z,41.17
2019-02-24T04:23:02.117Z,41.44
2019-02-24T04:25:50.532Z,41.54
2019-02-24T04:28:39.115Z,41.69
2019-02-24T04:31:27.895Z,41.71
2019-02-24T04:34:16.813Z,41.42
2019-02-24T04:37:05.396Z,42.15
2019-02-24T04:39:54.152Z,42.31
2019-02-24T04:42:43.312Z,42.12
2019-02-24T04:45:32.470Z,41.99
2019-02-24T04:48:21.014Z,42.31
2019-02-24T04:51:09.880Z,42.99
2019-02-24T04:53:58.489Z,43.27
2019-02-24T04:56:46.742Z,43.05
2019-02-24T04:59:35.451Z,42.96
2019-02-24T05:02:24.197Z,42.89
2019-02-24T05:05:12.941Z,42.73
2019-02-24T05:08:01.294Z,43.47
2019-02-24T05:10:49.475Z,43.72
2019-02-24T05:13:38.474Z,43.30
2019-02-24T05:16:26.680Z,43.33
2019-02-24T05:19:15.037Z,43.73
2019-02-24T05:22:03.393Z,43.60
2019-02-24T05:24:51.853Z,43.73
2019-02-24T05:27:40.685Z,43.96
2019-02-24T05:30:29.365Z,43.92
2019-02-24T05:33:18.123Z,44.09
2019-02-24T05:36:06.190Z,44.17
2019-02-24T05:38:55.164Z,44.47
2019-02-24T05:41:43.934Z,44.11
2019-02-24T05:44:32.919Z,44.53
2019-02-24T05:47:21.269Z,44.63
2019-02-24T05:50:09.978Z,44.57
2019-02-24T05:52:58.562Z,44.39
2019-02-24T05:55:46.971Z,44.72
2019-02-24T05:58:35.474Z,44.91
2019-02-24T06:01:23.633Z,45.02
2019-02-24T06:04:12.448Z,45.14
2019-02-24T06:07:01.047Z,45.11
2019-02-24T06:09:49.594Z,44.77
2019-02-24T06:12:38.756Z,44.63
2019-02-24T06:15:27.460Z,45.34
2019-02-24T06:18:15.981Z,45.71
2019-02-24T06:21:04.720Z,45.74
2019-02-24T06:23:53.379Z,45.78
2019-02-24T06:26:42.217Z,45.60
2019-02-24T06:29:31.174Z,45.71
2019-02-24T06:32:20.095Z,46.04
2019-02-24T06:35:09.044Z,45.56
2019-02-24T06:37:57.798Z,45.94
2019-02-24T06:40:46.607Z,45.64
2019-02-24T06:43:35.241Z,45.36
2019-02-24T06:46:24.168Z,45.29
2019-02-24T06:51:50.368Z,45.32
2019-02-24T06:54:39.411Z,46.19
2019-02-24T06:57:27.659Z,45.64
2019-02-24T07:00:16.737Z,45.63
2019-02-24T07:03:04.857Z,45.75
2019-02-24T07:05:53.352Z,45.72
2019-02-24T07:08:42.293Z,45.15
2019-02-24T07:11:30.944Z,45.16
2019-02-24T07:14:18.999Z,45.07
2019-02-24T07:17:07.647Z,45.14
2019-02-24T07:19:56.598Z,44.48
2019-02-24T07:22:45.199Z,44.88
2019-02-24T07:25:34.323Z,44.27
2019-02-24T07:28:23.424Z,44.85
2019-02-24T07:31:12.101Z,44.55
2019-02-24T07:34:00.632Z,44.28
2019-02-24T07:36:49.048Z,44.56
2019-02-24T07:39:37.459Z,44.48
2019-02-24T07:42:25.741Z,44.94
2019-02-24T07:45:14.373Z,45.00
2019-02-24T07:48:02.737Z,45.24
2019-02-24T07:50:51.433Z,45.02
2019-02-24T07:53:40.009Z,44.87
2019-02-24T07:56:28.165Z,43.62
2019-02-24T07:59:16.893Z,43.84
2019-02-24T08:02:05.017Z,43.16
2019-02-24T08:04:53.073Z,42.83
2019-02-24T08:07:41.343Z,43.38
2019-02-24T08:10:29.739Z,42.83
2019-02-24T08:13:18.061Z,43.16
2019-02-24T08:16:06.635Z,43.49
2019-02-24T08:18:54.890Z,43.08
2019-02-24T08:21:43.482Z,42.87
2019-02-24T08:24:32.363Z,42.59
2019-02-24T08:27:20.835Z,42.78
2019-02-24T08:30:10.409Z,42.67
2019-02-24T08:32:58.918Z,42.74
2019-02-24T08:35:47.499Z,42.75
2019-02-24T08:38:35.896Z,43.13
2019-02-24T08:41:24.538Z,43.77
2019-02-24T08:44:13.512Z,43.10
2019-02-24T08:47:02.326Z,42.97
2019-02-24T08:49:50.815Z,43.03
2019-02-24T08:52:39.992Z,43.42
2019-02-24T08:55:28.870Z,44.68
2019-02-24T08:58:17.932Z,43.42
2019-02-24T09:01:06.888Z,43.65
2019-02-24T09:03:55.708Z,43.87
2019-02-24T09:06:44.890Z,43.58
2019-02-24T09:09:33.525Z,43.67
2019-02-24T09:12:22.594Z,44.00
2019-02-24T09:15:11.442Z,44.04
2019-02-24T09:17:59.994Z,43.67
2019-02-24T09:20:49.299Z,44.09
2019-02-24T09:23:37.901Z,44.03
2019-02-24T09:26:26.758Z,44.68
2019-02-24T09:29:16.080Z,43.93
2019-02-24T09:32:04.313Z,43.49
2019-02-24T09:34:52.844Z,44.07
2019-02-24T09:37:41.819Z,43.62
2019-02-24T09:40:30.639Z,43.64
2019-02-24T09:43:19.222Z,43.21
2019-02-24T09:46:07.987Z,42.26
2019-02-24T09:48:56.840Z,42.74
2019-02-24T09:51:45.564Z,41.54
2019-02-24T09:54:34.288Z,42.40
2019-02-24T09:57:23.668Z,41.97
2019-02-24T10:00:12.698Z,41.67
2019-02-24T10:03:01.284Z,42.30
2019-02-24T10:05:50.276Z,41.22
2019-02-24T10:08:39.240Z,41.49
2019-02-24T10:11:28.578Z,40.07
2019-02-24T10:14:17.084Z,40.32
2019-02-24T10:17:05.922Z,39.16
2019-02-24T10:19:54.900Z,38.83
2019-02-24T10:22:45.326Z,38.15
2019-02-24T10:25:34.203Z,37.77
2019-02-24T10:28:24.146Z,37.62
2019-02-24T10:31:19.644Z,37.55
2019-02-24T10:34:03.656Z,37.76
2019-02-24T10:36:52.489Z,37.69
2019-02-24T10:39:40.851Z,37.72
2019-02-24T10:42:29.818Z,37.29
2019-02-24T10:45:18.832Z,37.18
2019-02-24T10:48:14.003Z,37.02
2019-02-24T10:50:57.520Z,35.79
2019-02-24T10:53:46.371Z,36.93
2019-02-24T10:56:35.682Z,36.32
2019-02-24T10:59:24.623Z,36.68
2019-02-24T11:02:14.463Z,36.32
2019-02-24T11:05:03.354Z,36.61
2019-02-24T11:07:52.190Z,36.00
2019-02-24T11:10:41.470Z,36.25
2019-02-24T11:13:30.121Z,35.34
2019-02-24T11:16:18.954Z,36.29
2019-02-24T11:19:08.244Z,35.77
2019-02-24T11:21:56.940Z,35.77
2019-02-24T11:24:45.471Z,35.24
2019-02-24T11:27:33.975Z,36.24
2019-02-24T11:30:22.788Z,35.71
2019-02-24T11:33:11.552Z,36.40
2019-02-24T11:35:59.884Z,36.00
2019-02-24T11:38:48.068Z,36.02
2019-02-24T11:41:37.092Z,35.48
2019-02-24T11:44:25.936Z,35.41
2019-02-24T11:47:14.951Z,35.90
2019-02-24T11:50:03.502Z,35.50
2019-02-24T11:52:52.688Z,35.95
2019-02-24T11:55:41.771Z,35.98
2019-02-24T11:58:31.046Z,34.90
2019-02-24T12:01:20.168Z,35.12
2019-02-24T12:04:08.821Z,34.70
2019-02-24T12:06:57.627Z,34.15
2019-02-24T12:12:26.739Z,34.30
2019-02-24T12:15:15.332Z,34.30
2019-02-24T12:18:03.736Z,33.92
2019-02-24T12:20:52.482Z,35.04
2019-02-24T12:23:40.661Z,33.94
2019-02-24T12:26:29.646Z,34.56
2019-02-24T12:29:17.876Z,34.70
2019-02-24T12:32:06.409Z,34.58
2019-02-24T12:34:55.056Z,35.90
2019-02-24T12:37:43.603Z,33.83
2019-02-24T12:40:32.962Z,33.54
2019-02-24T12:43:21.942Z,33.84
2019-02-24T12:46:10.606Z,33.78
2019-02-24T12:48:59.133Z,33.87
2019-02-24T12:51:47.361Z,33.49
2019-02-24T12:54:35.879Z,33.96
2019-02-24T12:57:24.832Z,33.82
2019-02-24T13:00:16.729Z,34.00
2019-02-24T13:03:05.669Z,34.13
2019-02-24T13:05:54.216Z,33.37
2019-02-24T13:08:43.153Z,34.23
2019-02-24T13:11:32.795Z,34.16
2019-02-24T13:14:21.895Z,34.16
2019-02-24T13:17:11.091Z,33.91
2019-02-24T13:20:00.280Z,34.15
2019-02-24T13:22:49.473Z,33.86
2019-02-24T13:25:38.387Z,33.32
2019-02-24T13:28:27.162Z,34.08
2019-02-24T13:31:16.377Z,34.07
2019-02-24T13:34:05.321Z,34.62
2019-02-24T13:36:54.018Z,33.09
2019-02-24T13:39:42.815Z,33.72
2019-02-24T13:42:31.452Z,33.60
2019-02-24T13:45:20.607Z,33.81
2019-02-24T13:48:09.276Z,34.18
2019-02-24T13:50:57.746Z,33.96
2019-02-24T13:53:46.813Z,34.09
2019-02-24T13:56:35.862Z,33.31
2019-02-24T13:59:24.619Z,34.60
2019-02-24T14:02:13.081Z,34.41
2019-02-24T14:05:02.309Z,33.50
2019-02-24T14:07:51.689Z,33.85
2019-02-24T14:10:40.317Z,32.51
2019-02-24T14:13:28.981Z,31.68
2019-02-24T14:16:17.583Z,31.14
2019-02-24T14:19:06.122Z,31.33
2019-02-24T14:21:55.037Z,30.96
2019-02-24T14:24:44.001Z,31.05
2019-02-24T14:27:32.705Z,31.05
2019-02-24T14:30:21.809Z,31.46
2019-02-24T14:33:10.661Z,30.67
2019-02-24T14:35:59.314Z,31.15
2019-02-24T14:38:48.176Z,30.24
2019-02-24T14:41:38.199Z,31.09
2019-02-24T14:44:26.425Z,30.57
2019-02-24T14:47:15.424Z,30.90
2019-02-24T14:50:03.943Z,32.42
2019-02-24T14:52:52.988Z,32.03
2019-02-24T14:55:41.959Z,32.86
2019-02-24T14:58:31.045Z,31.83
2019-02-24T15:01:19.801Z,32.62
2019-02-24T15:04:08.937Z,33.12
2019-02-24T15:06:58.101Z,33.40
2019-02-24T15:09:48.261Z,32.72
2019-02-24T15:12:36.853Z,33.25
2019-02-24T15:15:32.448Z,32.71
2019-02-24T15:18:15.547Z,32.91
2019-02-24T15:21:05.821Z,32.91
2019-02-24T15:23:55.094Z,32.64
2019-02-24T15:26:43.740Z,33.29
2019-02-24T15:29:32.374Z,32.20
2019-02-24T15:32:21.203Z,32.60
2019-02-24T15:35:10.198Z,32.69
2019-02-24T15:37:58.892Z,33.32
2019-02-24T15:40:47.794Z,32.90
2019-02-24T15:43:36.942Z,33.48
2019-02-24T15:46:26.870Z,33.25
2019-02-24T15:49:15.978Z,32.62
2019-02-24T15:52:09.952Z,32.20
2019-02-24T15:54:54.822Z,32.65
2019-02-24T15:57:43.991Z,31.88
2019-02-24T16:00:34.107Z,32.99
2019-02-24T16:03:22.858Z,34.25
2019-02-24T16:06:11.901Z,33.78
2019-02-24T16:09:01.020Z,33.55
2019-02-24T16:11:49.797Z,33.68
2019-02-24T16:14:38.726Z,33.98
2019-02-24T16:17:27.635Z,34.56
2019-02-24T16:20:19.074Z,34.92
2019-02-24T16:23:07.589Z,35.37
2019-02-24T16:25:56.573Z,35.15
2019-02-24T16:28:46.301Z,35.58
2019-02-24T16:31:35.630Z,35.60
2019-02-24T16:34:24.582Z,36.27
2019-02-24T16:37:13.591Z,36.27
2019-02-24T16:40:02.615Z,36.36
2019-02-24T16:42:52.383Z,37.21
2019-02-24T16:45:41.164Z,36.88
2019-02-24T16:48:29.627Z,36.65
2019-02-24T16:51:18.529Z,36.67
2019-02-24T16:54:08.210Z,36.45
2019-02-24T16:57:04.801Z,36.43
2019-02-24T16:59:47.881Z,37.16
2019-02-24T17:02:39.720Z,38.33
2019-02-24T17:05:28.907Z,38.61
2019-02-24T17:08:18.174Z,38.34
2019-02-24T17:11:07.757Z,38.80
2019-02-24T17:13:56.594Z,39.06
2019-02-24T17:16:44.936Z,39.01
2019-02-24T17:19:33.563Z,39.68
2019-02-24T17:22:22.353Z,40.39
2019-02-24T17:25:10.776Z,40.00
2019-02-24T17:27:59.818Z,40.36
2019-02-24T17:30:48.441Z,39.76
2019-02-24T17:33:37.331Z,40.18
2019-02-24T17:36:26.004Z,40.16
2019-02-24T17:39:14.564Z,39.04
2019-02-24T17:42:03.037Z,39.67
2019-02-24T17:44:51.115Z,39.82
2019-02-24T17:47:40.685Z,39.94
2019-02-24T17:50:29.524Z,40.28
2019-02-24T17:53:18.608Z,41.19
2019-02-24T17:56:07.399Z,40.95
2019-02-24T17:58:56.255Z,41.22
2019-02-24T18:01:44.915Z,41.43
2019-02-24T18:04:34.015Z,41.27
2019-02-24T18:07:23.020Z,41.17
2019-02-24T18:10:12.363Z,42.09
2019-02-24T18:13:01.520Z,41.94
2019-02-24T18:15:50.173Z,42.78
2019-02-24T18:18:38.682Z,42.68
2019-02-24T18:21:27.889Z,43.09
2019-02-24T18:24:17.353Z,43.01
2019-02-24T18:27:05.842Z,42.90
2019-02-24T18:29:54.423Z,43.12
2019-02-24T18:32:43.921Z,43.07
2019-02-24T18:35:32.435Z,43.80
2019-02-24T18:38:21.447Z,43.62
2019-02-24T18:41:09.878Z,43.80
2019-02-24T18:43:58.690Z,43.76
2019-02-24T18:46:47.643Z,43.30
2019-02-24T18:49:36.168Z,43.52
2019-02-24T18:52:25.589Z,43.88
2019-02-24T18:55:14.674Z,43.85
2019-02-24T18:58:03.436Z,44.77
2019-02-24T19:00:51.688Z,44.29
2019-02-24T19:03:41.757Z,44.66
2019-02-24T19:06:38.933Z,43.90
2019-02-24T19:09:21.194Z,44.49
2019-02-24T19:12:10.094Z,44.19
2019-02-24T19:14:58.259Z,44.02
2019-02-24T19:17:47.015Z,44.03
2019-02-24T19:20:36.228Z,44.04
2019-02-24T19:23:25.293Z,43.26
2019-02-24T19:26:14.224Z,43.81
2019-02-24T19:29:02.655Z,43.86
2019-02-24T19:31:51.807Z,44.14
2019-02-24T19:34:40.265Z,43.81
2019-02-24T19:37:29.426Z,44.34
2019-02-24T19:40:18.153Z,44.84
2019-02-24T19:43:06.901Z,44.21
2019-02-24T19:45:55.492Z,43.80
2019-02-24T19:48:44.463Z,43.76
2019-02-24T19:51:33.222Z,43.93
2019-02-24T19:54:22.349Z,43.78
2019-02-24T19:57:11.464Z,44.63
2019-02-24T20:00:00.344Z,44.54
2019-02-24T20:02:49.802Z,44.47
2019-02-24T20:05:39.018Z,44.47
2019-02-24T20:08:28.511Z,44.77
2019-02-24T20:11:17.754Z,45.42
2019-02-24T20:14:06.926Z,45.42
2019-02-24T20:16:55.803Z,45.76
2019-02-24T20:19:44.806Z,45.64
2019-02-24T20:22:35.155Z,45.54
2019-02-24T20:25:23.965Z,45.79
2019-02-24T20:28:12.450Z,46.10
2019-02-24T20:31:01.404Z,46.04
2019-02-24T20:33:51.457Z,46.36
2019-02-24T20:36:40.751Z,46.68
2019-02-24T20:39:29.563Z,47.14
2019-02-24T20:42:19.049Z,46.64
2019-02-24T20:45:09.285Z,47.19
2019-02-24T20:47:57.901Z,47.08
2019-02-24T20:50:46.895Z,47.09
2019-02-24T20:53:35.191Z,47.43
2019-02-24T20:56:24.399Z,47.03
2019-02-24T20:59:13.461Z,47.25
2019-02-24T21:02:02.358Z,47.30
2019-02-24T21:04:50.960Z,47.23
2019-02-24T21:07:39.235Z,47.25
2019-02-24T21:10:28.068Z,47.79
2019-02-24T21:13:17.210Z,47.66
2019-02-24T21:16:06.078Z,47.91
2019-02-24T21:18:55.185Z,47.45
2019-02-24T21:21:44.591Z,47.61
2019-02-24T21:24:33.687Z,47.63
2019-02-24T21:27:22.922Z,47.85
2019-02-24T21:30:14.292Z,47.26
2019-02-24T21:33:03.290Z,47.73
2019-02-24T21:35:51.960Z,47.11
2019-02-24T21:38:40.886Z,46.88
2019-02-24T21:41:29.970Z,47.16
2019-02-24T21:44:19.180Z,46.88
2019-02-24T21:47:08.578Z,46.27
2019-02-24T21:49:57.076Z,46.59
2019-02-24T21:52:46.055Z,46.82
2019-02-24T21:55:34.557Z,46.78
2019-02-24T21:58:23.250Z,46.81
2019-02-24T22:01:11.796Z,46.93
2019-02-24T22:04:00.903Z,46.90
2019-02-24T22:06:49.796Z,47.25
2019-02-24T22:09:38.834Z,47.49
2019-02-24T22:12:28.546Z,47.38
2019-02-24T22:15:18.194Z,47.51
2019-02-24T22:18:06.738Z,47.06
2019-02-24T22:20:54.719Z,47.15
2019-02-24T22:23:43.035Z,46.68
2019-02-24T22:26:31.499Z,47.00
2019-02-24T22:29:20.905Z,47.59
2019-02-24T22:32:10.129Z,47.88
2019-02-24T22:34:58.763Z,47.88
2019-02-24T22:37:47.583Z,47.80
2019-02-24T22:40:36.468Z,48.27
2019-02-24T22:43:25.680Z,47.92
2019-02-24T22:46:14.937Z,48.24
2019-02-24T22:49:03.620Z,48.01
2019-02-24T22:51:52.631Z,48.16
2019-02-24T22:54:41.951Z,48.34
2019-02-24T22:57:30.306Z,48.38
2019-02-24T23:01:00.330Z,48.34
2019-02-24T23:03:49.534Z,48.74
2019-02-24T23:06:37.945Z,48.74
2019-02-24T23:09:27.019Z,47.83
2019-02-24T23:12:15.446Z,48.49
2019-02-24T23:15:04.926Z,48.04
2019-02-24T23:17:53.812Z,47.95
2019-02-24T23:20:42.272Z,48.41
2019-02-24T23:23:31.584Z,48.40
2019-02-24T23:26:20.939Z,48.67
2019-02-24T23:29:09.900Z,48.84
2019-02-24T23:31:57.976Z,48.78
2019-02-24T23:34:46.614Z,49.12
2019-02-24T23:37:35.369Z,49.15
2019-02-24T23:40:24.331Z,49.15
2019-02-24T23:43:13.340Z,48.85
2019-02-24T23:46:02.639Z,48.77
2019-02-24T23:48:51.434Z,49.60
2019-02-24T23:51:40.097Z,49.76
2019-02-24T23:54:29.027Z,49.62
2019-02-24T23:57:17.839Z,49.34
